createdAt,value
2019-06-26T00:00:24.625Z,13.43
2019-06-26T00:02:26.011Z,20.53
2019-06-26T00:04:27.409Z,22.93
2019-06-26T00:06:28.775Z,18.63
2019-06-26T00:08:30.161Z,13.70
2019-06-26T00:10:31.578Z,14.03
2019-06-26T00:12:33.131Z,11.93
2019-06-26T00:14:38.403Z,14.20
2019-06-26T00:16:37.885Z,13.17
2019-06-26T00:18:39.255Z,14.00
2019-06-26T00:20:40.662Z,14.23
2019-06-26T00:22:42.064Z,14.23
2019-06-26T00:24:43.476Z,12.87
2019-06-26T00:26:44.831Z,12.80
2019-06-26T00:28:46.314Z,13.90
2019-06-26T00:30:47.773Z,14.30
2019-06-26T00:32:49.222Z,14.43
2019-06-26T00:34:50.650Z,12.50
2019-06-26T00:36:52.027Z,14.07
2019-06-26T00:38:53.474Z,13.40
2019-06-26T00:40:54.858Z,13.33
2019-06-26T00:42:56.271Z,13.30
2019-06-26T00:44:57.761Z,14.90
2019-06-26T00:46:59.138Z,13.10
2019-06-26T00:49:00.580Z,15.80
2019-06-26T00:51:01.974Z,14.63
2019-06-26T00:53:03.394Z,15.77
2019-06-26T00:55:05.183Z,15.33
2019-06-26T00:57:06.597Z,14.73
2019-06-26T00:59:07.942Z,15.50
2019-06-26T01:01:09.464Z,15.50
2019-06-26T01:03:10.876Z,16.37
2019-06-26T01:05:13.456Z,15.80
2019-06-26T01:07:15.105Z,15.10
2019-06-26T01:09:16.499Z,16.10
2019-06-26T01:11:20.704Z,15.17
2019-06-26T01:13:21.187Z,16.83
2019-06-26T01:15:22.568Z,17.77
2019-06-26T01:17:23.946Z,18.50
2019-06-26T01:19:25.790Z,17.23
2019-06-26T01:21:29.156Z,16.80
2019-06-26T01:23:30.547Z,17.67
2019-06-26T01:25:31.985Z,16.80
2019-06-26T01:27:33.703Z,16.13
2019-06-26T01:29:35.232Z,16.53
2019-06-26T01:31:36.647Z,17.73
2019-06-26T01:33:38.154Z,16.50
2019-06-26T01:35:39.694Z,16.90
2019-06-26T01:37:41.173Z,16.53
2019-06-26T01:39:42.638Z,18.20
2019-06-26T01:41:44.047Z,18.90
2019-06-26T01:43:45.487Z,19.20
2019-06-26T01:45:46.902Z,17.57
2019-06-26T01:47:48.311Z,18.10
2019-06-26T01:49:49.680Z,18.60
2019-06-26T01:51:51.022Z,17.40
2019-06-26T01:53:52.456Z,19.70
2019-06-26T01:55:53.836Z,19.87
2019-06-26T01:57:55.181Z,21.00
2019-06-26T01:59:56.612Z,22.37
2019-06-26T02:01:57.974Z,22.00
2019-06-26T02:03:59.392Z,26.70
2019-06-26T02:06:00.768Z,28.47
2019-06-26T02:08:02.147Z,22.47
2019-06-26T02:10:05.800Z,21.33
2019-06-26T02:12:07.185Z,18.53
2019-06-26T02:14:08.605Z,20.00
2019-06-26T02:16:09.971Z,18.80
2019-06-26T02:18:25.148Z,19.60
2019-06-26T02:20:26.572Z,20.37
2019-06-26T02:22:27.939Z,19.47
2019-06-26T02:24:29.361Z,34.77
2019-06-26T02:26:30.897Z,21.13
2019-06-26T02:28:32.286Z,23.17
2019-06-26T02:30:33.673Z,40.27
2019-06-26T02:32:35.101Z,47.97
2019-06-26T02:34:36.497Z,26.10
2019-06-26T02:36:37.902Z,28.43
2019-06-26T02:38:39.282Z,29.77
2019-06-26T02:40:40.697Z,18.63
2019-06-26T02:42:42.231Z,24.23
2019-06-26T02:44:52.920Z,20.20
2019-06-26T02:46:46.871Z,21.17
2019-06-26T02:48:48.293Z,17.90
2019-06-26T02:50:49.751Z,22.03
2019-06-26T02:52:51.153Z,27.63
2019-06-26T02:54:52.528Z,35.73
2019-06-26T02:56:53.901Z,17.40
2019-06-26T02:58:55.321Z,19.50
2019-06-26T03:00:56.804Z,19.10
2019-06-26T03:02:58.214Z,20.20
2019-06-26T03:04:59.624Z,22.63
2019-06-26T03:07:01.093Z,21.20
2019-06-26T03:09:05.427Z,19.97
2019-06-26T03:11:06.849Z,18.63
2019-06-26T03:13:08.210Z,20.80
2019-06-26T03:15:10.040Z,19.60
2019-06-26T03:17:11.507Z,19.17
2019-06-26T03:19:12.929Z,20.07
2019-06-26T03:21:14.351Z,28.33
2019-06-26T03:23:18.506Z,19.17
2019-06-26T03:25:19.865Z,22.43
2019-06-26T03:27:21.292Z,20.33
2019-06-26T03:29:22.662Z,20.20
2019-06-26T03:31:24.084Z,22.10
2019-06-26T03:33:25.461Z,23.73
2019-06-26T03:35:26.813Z,21.30
2019-06-26T03:37:28.242Z,25.13
2019-06-26T03:39:29.627Z,24.63
2019-06-26T03:41:30.995Z,23.37
2019-06-26T03:43:35.439Z,33.10
2019-06-26T03:45:35.860Z,30.03
2019-06-26T03:47:37.216Z,23.63
2019-06-26T03:49:38.635Z,21.07
2019-06-26T03:51:40.092Z,23.63
2019-06-26T03:53:41.613Z,23.63
2019-06-26T03:55:43.006Z,22.80
2019-06-26T03:57:44.409Z,25.83
2019-06-26T03:59:45.763Z,23.10
2019-06-26T04:01:47.139Z,23.67
2019-06-26T04:03:48.621Z,25.60
2019-06-26T04:05:50.022Z,27.03
2019-06-26T04:07:51.523Z,28.60
2019-06-26T04:09:52.954Z,27.57
2019-06-26T04:11:54.392Z,28.63
2019-06-26T04:13:55.745Z,27.93
2019-06-26T04:15:57.119Z,30.47
2019-06-26T04:17:58.563Z,42.37
2019-06-26T04:20:00.144Z,37.03
2019-06-26T04:22:01.586Z,35.97
2019-06-26T04:24:03.071Z,33.17
2019-06-26T04:26:04.471Z,45.53
2019-06-26T04:28:06.542Z,31.23
2019-06-26T04:30:09.910Z,37.17
2019-06-26T04:32:11.401Z,27.57
2019-06-26T04:34:12.762Z,28.27
2019-06-26T04:36:14.167Z,28.10
2019-06-26T04:38:15.567Z,27.43
2019-06-26T04:40:20.285Z,25.77
2019-06-26T04:42:21.178Z,25.07
2019-06-26T04:44:22.562Z,25.80
2019-06-26T04:46:23.925Z,25.90
2019-06-26T04:48:25.342Z,25.60
2019-06-26T04:50:26.706Z,25.23
2019-06-26T04:52:29.329Z,26.43
2019-06-26T04:54:30.733Z,26.10
2019-06-26T04:56:32.109Z,28.17
2019-06-26T04:58:33.699Z,29.40
2019-06-26T05:00:35.104Z,25.37
2019-06-26T05:02:36.513Z,26.90
2019-06-26T05:04:37.945Z,26.90
2019-06-26T05:06:39.310Z,25.93
2019-06-26T05:08:40.724Z,26.63
2019-06-26T05:10:42.142Z,26.27
2019-06-26T05:12:43.635Z,26.03
2019-06-26T05:14:45.012Z,26.43
2019-06-26T05:16:46.434Z,26.43
2019-06-26T05:18:47.806Z,27.80
2019-06-26T05:20:49.219Z,26.00
2019-06-26T05:22:50.642Z,28.27
2019-06-26T05:24:52.095Z,25.63
2019-06-26T05:26:53.525Z,27.40
2019-06-26T05:28:54.930Z,27.10
2019-06-26T05:30:56.340Z,26.57
2019-06-26T05:32:57.832Z,25.67
2019-06-26T05:34:59.227Z,25.57
2019-06-26T05:37:00.602Z,25.63
2019-06-26T05:39:03.929Z,26.97
2019-06-26T05:41:05.589Z,29.03
2019-06-26T05:43:06.968Z,26.27
2019-06-26T05:45:09.771Z,26.07
2019-06-26T05:47:11.184Z,26.30
2019-06-26T05:49:12.561Z,26.90
2019-06-26T05:51:13.987Z,25.00
2019-06-26T05:53:15.367Z,26.00
2019-06-26T05:55:17.004Z,25.17
2019-06-26T05:57:18.694Z,25.33
2019-06-26T05:59:20.068Z,25.50
2019-06-26T06:01:21.573Z,25.53
2019-06-26T06:03:22.952Z,24.87
2019-06-26T06:05:24.368Z,23.90
2019-06-26T06:07:25.735Z,24.73
2019-06-26T06:09:27.213Z,23.90
2019-06-26T06:11:28.618Z,23.87
2019-06-26T06:13:29.991Z,25.00
2019-06-26T06:15:31.431Z,24.37
2019-06-26T06:17:32.839Z,23.07
2019-06-26T06:19:34.312Z,23.80
2019-06-26T06:21:35.723Z,22.00
2019-06-26T06:23:37.104Z,23.60
2019-06-26T06:25:38.572Z,23.13
2019-06-26T06:27:40.090Z,23.57
2019-06-26T06:29:41.464Z,21.53
2019-06-26T06:31:42.880Z,21.73
2019-06-26T06:33:44.290Z,24.10
2019-06-26T06:35:45.687Z,22.97
2019-06-26T06:37:47.084Z,19.90
2019-06-26T06:39:48.458Z,22.50
2019-06-26T06:41:49.962Z,21.50
2019-06-26T06:43:51.371Z,20.23
2019-06-26T06:45:52.764Z,20.33
2019-06-26T06:47:54.228Z,21.93
2019-06-26T06:49:55.634Z,21.30
2019-06-26T06:51:57.020Z,19.80
2019-06-26T06:53:58.450Z,19.03
2019-06-26T06:56:01.820Z,20.60
2019-06-26T06:58:03.496Z,20.00
2019-06-26T07:00:07.193Z,20.63
2019-06-26T07:02:08.565Z,20.30
2019-06-26T07:04:09.938Z,20.57
2019-06-26T07:06:11.355Z,20.53
2019-06-26T07:08:12.835Z,20.70
2019-06-26T07:10:14.553Z,19.30
2019-06-26T07:12:16.136Z,20.40
2019-06-26T07:14:17.567Z,17.37
2019-06-26T07:16:18.934Z,19.13
2019-06-26T07:18:20.492Z,18.03
2019-06-26T07:20:22.227Z,20.07
2019-06-26T07:22:23.586Z,18.50
2019-06-26T07:24:24.982Z,16.77
2019-06-26T07:26:26.446Z,17.93
2019-06-26T07:28:27.829Z,17.77
2019-06-26T07:30:29.230Z,16.50
2019-06-26T07:32:30.644Z,17.93
2019-06-26T07:34:32.080Z,17.00
2019-06-26T07:36:33.483Z,16.10
2019-06-26T07:38:34.852Z,16.97
2019-06-26T07:40:36.254Z,16.80
2019-06-26T07:42:37.638Z,17.00
2019-06-26T07:44:39.054Z,16.13
2019-06-26T07:46:40.442Z,15.33
2019-06-26T07:48:41.837Z,16.63
2019-06-26T07:50:43.210Z,16.67
2019-06-26T07:52:44.633Z,15.20
2019-06-26T07:54:46.237Z,15.77
2019-06-26T07:56:47.691Z,15.93
2019-06-26T07:58:49.071Z,17.13
2019-06-26T08:00:50.561Z,15.57
2019-06-26T08:02:52.073Z,15.70
2019-06-26T08:04:53.584Z,15.53
2019-06-26T08:06:54.965Z,14.63
2019-06-26T08:08:56.398Z,13.87
2019-06-26T08:10:57.942Z,14.97
2019-06-26T08:12:59.331Z,15.27
2019-06-26T08:15:00.744Z,15.10
2019-06-26T08:17:02.103Z,15.53
2019-06-26T08:19:03.536Z,15.87
2019-06-26T08:21:11.922Z,14.13
2019-06-26T08:23:08.350Z,14.60
2019-06-26T08:25:09.925Z,13.00
2019-06-26T08:27:13.174Z,15.33
2019-06-26T08:29:14.649Z,15.77
2019-06-26T08:31:16.056Z,14.73
2019-06-26T08:33:17.526Z,13.50
2019-06-26T08:35:19.003Z,13.20
2019-06-26T08:37:20.445Z,13.40
2019-06-26T08:39:21.942Z,14.07
2019-06-26T08:41:23.615Z,12.70
2019-06-26T08:43:25.050Z,13.70
2019-06-26T08:45:26.424Z,12.97
2019-06-26T08:47:27.891Z,13.17
2019-06-26T08:49:29.301Z,12.50
2019-06-26T08:51:30.682Z,12.97
2019-06-26T08:53:32.068Z,12.77
2019-06-26T08:55:33.475Z,11.60
2019-06-26T08:57:34.830Z,12.30
2019-06-26T08:59:36.242Z,11.80
2019-06-26T09:01:37.649Z,11.87
2019-06-26T09:03:41.964Z,11.90
2019-06-26T09:05:47.960Z,11.47
2019-06-26T09:07:45.596Z,11.00
2019-06-26T09:09:46.961Z,12.73
2019-06-26T09:11:48.371Z,12.37
2019-06-26T09:13:49.754Z,11.70
2019-06-26T09:15:51.120Z,12.70
2019-06-26T09:17:52.717Z,11.93
2019-06-26T09:19:54.115Z,12.87
2019-06-26T09:21:55.527Z,12.73
2019-06-26T09:23:56.900Z,11.20
2019-06-26T09:25:59.104Z,11.77
2019-06-26T09:28:00.519Z,12.00
2019-06-26T09:30:04.295Z,10.53
2019-06-26T09:32:05.711Z,11.50
2019-06-26T09:34:07.079Z,11.00
2019-06-26T09:36:08.597Z,11.43
2019-06-26T09:38:10.021Z,8.87
2019-06-26T09:40:12.197Z,10.83
2019-06-26T09:42:14.073Z,9.77
2019-06-26T09:44:15.577Z,10.50
2019-06-26T09:46:17.039Z,9.90
2019-06-26T09:48:18.517Z,10.17
2019-06-26T09:50:20.033Z,12.80
2019-06-26T09:52:21.412Z,11.50
2019-06-26T09:54:22.826Z,11.80
2019-06-26T09:56:24.222Z,11.50
2019-06-26T09:58:25.620Z,10.07
2019-06-26T10:00:27.402Z,10.87
2019-06-26T10:02:28.765Z,10.50
2019-06-26T10:04:30.162Z,11.10
2019-06-26T10:06:31.562Z,11.07
2019-06-26T10:08:32.995Z,10.17
2019-06-26T10:10:34.443Z,11.30
2019-06-26T10:12:35.819Z,10.93
2019-06-26T10:14:47.153Z,12.27
2019-06-26T10:16:40.494Z,10.70
2019-06-26T10:18:41.868Z,11.43
2019-06-26T10:20:43.282Z,11.13
2019-06-26T10:22:44.702Z,11.30
2019-06-26T10:24:46.090Z,9.57
2019-06-26T10:26:47.510Z,10.53
2019-06-26T10:28:48.888Z,10.30
2019-06-26T10:30:50.410Z,10.80
2019-06-26T10:32:51.896Z,10.20
2019-06-26T10:34:53.286Z,10.10
2019-06-26T10:36:54.664Z,9.83
2019-06-26T10:38:56.068Z,10.60
2019-06-26T10:40:57.513Z,11.20
2019-06-26T10:42:58.930Z,11.80
2019-06-26T10:45:00.371Z,10.97
2019-06-26T10:47:01.858Z,11.33
2019-06-26T10:49:04.261Z,11.20
2019-06-26T10:51:05.640Z,10.60
2019-06-26T10:53:07.036Z,9.73
2019-06-26T10:55:08.992Z,13.70
2019-06-26T10:57:10.489Z,11.30
2019-06-26T10:59:11.859Z,11.17
2019-06-26T11:01:13.231Z,9.73
2019-06-26T11:03:14.662Z,11.07
2019-06-26T11:05:16.251Z,10.67
2019-06-26T11:07:17.666Z,11.73
2019-06-26T11:09:19.041Z,10.43
2019-06-26T11:11:20.430Z,10.50
2019-06-26T11:13:21.849Z,10.20
2019-06-26T11:15:23.423Z,10.50
2019-06-26T11:17:24.842Z,10.93
2019-06-26T11:19:39.464Z,10.80
2019-06-26T11:21:29.506Z,10.87
2019-06-26T11:23:30.908Z,12.30
2019-06-26T11:25:32.286Z,11.30
2019-06-26T11:27:35.123Z,10.90
2019-06-26T11:29:36.638Z,11.13
2019-06-26T11:31:38.112Z,11.27
2019-06-26T11:33:39.518Z,11.50
2019-06-26T11:35:40.914Z,12.00
2019-06-26T11:37:42.285Z,11.10
2019-06-26T11:39:43.705Z,10.60
2019-06-26T11:41:45.076Z,11.47
2019-06-26T11:43:46.623Z,11.53
2019-06-26T11:45:49.931Z,11.23
2019-06-26T11:47:51.387Z,11.40
2019-06-26T11:49:59.787Z,10.37
2019-06-26T11:51:56.017Z,11.83
2019-06-26T11:53:59.067Z,12.00
2019-06-26T11:56:00.651Z,11.50
2019-06-26T11:58:02.544Z,11.60
2019-06-26T12:00:11.938Z,10.87
2019-06-26T12:02:13.464Z,13.33
2019-06-26T12:04:14.837Z,20.50
2019-06-26T12:06:19.254Z,11.33
2019-06-26T12:08:19.510Z,11.23
2019-06-26T12:10:21.326Z,12.40
2019-06-26T12:12:22.711Z,11.93
2019-06-26T12:14:24.083Z,11.53
2019-06-26T12:16:25.495Z,11.07
2019-06-26T12:18:26.888Z,12.00
2019-06-26T12:20:28.306Z,11.53
2019-06-26T12:22:29.704Z,13.00
2019-06-26T12:24:31.116Z,12.37
2019-06-26T12:26:33.714Z,11.57
2019-06-26T12:28:35.089Z,12.07
2019-06-26T12:30:36.490Z,10.57
2019-06-26T12:32:42.231Z,10.83
2019-06-26T12:34:44.953Z,16.07
2019-06-26T12:36:44.555Z,10.50
2019-06-26T12:38:45.941Z,9.80
2019-06-26T12:40:47.394Z,10.97
2019-06-26T12:42:48.794Z,10.27
2019-06-26T12:44:50.182Z,10.20
2019-06-26T12:46:51.591Z,9.90
2019-06-26T12:48:53.002Z,10.50
2019-06-26T12:50:54.422Z,10.47
2019-06-26T12:52:55.817Z,11.00
2019-06-26T12:54:57.217Z,10.07
2019-06-26T12:56:58.628Z,10.63
2019-06-26T12:59:00.273Z,11.23
2019-06-26T13:01:01.934Z,10.80
2019-06-26T13:03:03.881Z,11.30
2019-06-26T13:05:05.915Z,10.13
2019-06-26T13:07:07.285Z,10.83
2019-06-26T13:09:08.705Z,11.40
2019-06-26T13:11:10.168Z,11.73
2019-06-26T13:13:11.549Z,10.80
2019-06-26T13:15:13.317Z,11.60
2019-06-26T13:17:14.724Z,12.40
2019-06-26T13:19:16.233Z,10.73
2019-06-26T13:21:17.748Z,11.07
2019-06-26T13:23:19.187Z,10.47
2019-06-26T13:25:20.557Z,10.57
2019-06-26T13:27:21.926Z,11.83
2019-06-26T13:29:23.351Z,10.53
2019-06-26T13:31:26.636Z,11.23
2019-06-26T13:33:28.127Z,11.47
2019-06-26T13:35:29.555Z,12.50
2019-06-26T13:37:31.019Z,10.60
2019-06-26T13:39:32.423Z,12.17
2019-06-26T13:41:33.999Z,11.23
2019-06-26T13:43:35.378Z,11.43
2019-06-26T13:45:36.768Z,11.07
2019-06-26T13:47:38.165Z,11.83
2019-06-26T13:49:39.556Z,14.10
2019-06-26T13:51:41.037Z,11.60
2019-06-26T13:53:42.448Z,11.30
2019-06-26T13:55:44.058Z,10.90
2019-06-26T13:57:45.448Z,12.77
2019-06-26T13:59:46.843Z,10.80
2019-06-26T14:01:48.241Z,11.57
2019-06-26T14:03:49.617Z,11.50
2019-06-26T14:05:51.036Z,11.80
2019-06-26T14:07:52.449Z,11.40
2019-06-26T14:09:53.834Z,11.87
2019-06-26T14:11:55.204Z,12.03
2019-06-26T14:13:56.630Z,12.40
2019-06-26T14:15:57.994Z,11.70
2019-06-26T14:17:59.396Z,11.40
2019-06-26T14:20:00.769Z,10.87
2019-06-26T14:22:02.248Z,13.20
2019-06-26T14:24:03.766Z,13.37
2019-06-26T14:26:05.236Z,13.53
2019-06-26T14:28:06.649Z,13.30
2019-06-26T14:30:09.173Z,12.67
2019-06-26T14:32:10.540Z,11.53
2019-06-26T14:34:11.947Z,11.43
2019-06-26T14:36:13.323Z,11.80
2019-06-26T14:38:14.746Z,12.60
2019-06-26T14:40:16.441Z,11.80
2019-06-26T14:42:17.854Z,11.43
2019-06-26T14:44:19.261Z,12.23
2019-06-26T14:46:20.764Z,12.03
2019-06-26T14:48:22.144Z,10.80
2019-06-26T14:50:23.566Z,10.63
2019-06-26T14:52:24.936Z,12.77
2019-06-26T14:54:26.379Z,13.33
2019-06-26T14:56:28.926Z,14.43
2019-06-26T14:58:30.303Z,12.13
2019-06-26T15:00:31.739Z,12.03
2019-06-26T15:02:34.355Z,11.83
2019-06-26T15:04:35.731Z,16.00
2019-06-26T15:06:37.135Z,11.53
2019-06-26T15:08:38.565Z,12.13
2019-06-26T15:10:39.950Z,12.70
2019-06-26T15:12:41.314Z,11.47
2019-06-26T15:14:42.725Z,11.77
2019-06-26T15:16:44.119Z,11.10
2019-06-26T15:18:45.533Z,13.00
2019-06-26T15:20:46.971Z,12.13
2019-06-26T15:22:48.411Z,11.57
2019-06-26T15:24:49.853Z,11.17
2019-06-26T15:26:51.203Z,9.53
2019-06-26T15:28:52.612Z,11.23
2019-06-26T15:30:54.043Z,12.50
2019-06-26T15:32:55.451Z,11.30
2019-06-26T15:34:56.826Z,11.73
2019-06-26T15:36:58.198Z,13.03
2019-06-26T15:38:59.607Z,12.50
2019-06-26T15:41:01.001Z,12.33
2019-06-26T15:43:02.394Z,11.33
2019-06-26T15:45:05.740Z,12.93
2019-06-26T15:47:07.174Z,12.60
2019-06-26T15:49:08.535Z,12.90
2019-06-26T15:51:09.896Z,13.27
2019-06-26T15:53:11.291Z,13.20
2019-06-26T15:55:12.848Z,13.47
2019-06-26T15:57:14.281Z,12.23
2019-06-26T15:59:15.652Z,12.87
2019-06-26T16:01:17.133Z,12.70
2019-06-26T16:03:18.497Z,12.93
2019-06-26T16:05:19.929Z,12.40
2019-06-26T16:07:21.406Z,13.50
2019-06-26T16:09:22.837Z,11.73
2019-06-26T16:11:24.590Z,12.50
2019-06-26T16:13:25.976Z,12.90
2019-06-26T16:15:27.375Z,13.10
2019-06-26T16:17:36.830Z,13.20
2019-06-26T16:19:38.245Z,13.23
2019-06-26T16:21:39.652Z,13.57
2019-06-26T16:23:41.005Z,12.93
2019-06-26T16:25:42.444Z,13.43
2019-06-26T16:27:43.790Z,11.60
2019-06-26T16:29:48.478Z,13.60
2019-06-26T16:31:48.513Z,13.97
2019-06-26T16:33:49.917Z,13.20
2019-06-26T16:35:51.371Z,12.70
2019-06-26T16:37:52.764Z,12.50
2019-06-26T16:39:54.267Z,12.50
2019-06-26T16:41:55.641Z,13.27
2019-06-26T16:43:57.057Z,11.40
2019-06-26T16:45:58.492Z,12.30
2019-06-26T16:47:59.863Z,11.10
2019-06-26T16:50:01.254Z,14.87
2019-06-26T16:52:02.778Z,11.90
2019-06-26T16:54:04.155Z,10.70
2019-06-26T16:56:05.543Z,11.13
2019-06-26T16:58:07.030Z,11.27
2019-06-26T17:00:10.255Z,11.23
2019-06-26T17:02:12.006Z,11.90
2019-06-26T17:04:13.409Z,11.07
2019-06-26T17:06:14.840Z,18.30
2019-06-26T17:08:16.241Z,9.43
2019-06-26T17:10:17.876Z,12.43
2019-06-26T17:12:19.284Z,10.77
2019-06-26T17:14:20.680Z,11.03
2019-06-26T17:16:22.025Z,10.10
2019-06-26T17:18:23.488Z,10.80
2019-06-26T17:20:24.910Z,12.27
2019-06-26T17:22:26.357Z,11.57
2019-06-26T17:24:27.718Z,10.70
2019-06-26T17:26:29.133Z,11.10
2019-06-26T17:28:30.536Z,12.10
2019-06-26T17:30:32.116Z,10.40
2019-06-26T17:32:33.472Z,11.43
2019-06-26T17:34:34.880Z,11.03
2019-06-26T17:36:36.231Z,10.87
2019-06-26T17:38:37.669Z,10.13
2019-06-26T17:40:39.555Z,10.20
2019-06-26T17:42:40.935Z,10.57
2019-06-26T17:44:42.349Z,13.80
2019-06-26T17:46:43.755Z,9.93
2019-06-26T17:48:45.210Z,10.57
2019-06-26T17:50:46.584Z,10.47
2019-06-26T17:52:48.091Z,9.87
2019-06-26T17:54:49.463Z,10.50
2019-06-26T17:56:50.842Z,10.27
2019-06-26T17:58:52.351Z,12.30
2019-06-26T18:00:53.710Z,9.60
2019-06-26T18:02:55.080Z,10.83
2019-06-26T18:04:56.496Z,9.57
2019-06-26T18:06:57.855Z,9.83
2019-06-26T18:08:59.210Z,10.03
2019-06-26T18:11:00.751Z,9.13
2019-06-26T18:13:02.242Z,9.33
2019-06-26T18:15:06.947Z,9.67
2019-06-26T18:17:21.556Z,9.07
2019-06-26T18:19:11.782Z,9.33
2019-06-26T18:21:13.149Z,8.17
2019-06-26T18:23:14.548Z,7.80
2019-06-26T18:25:16.762Z,7.80
2019-06-26T18:27:18.390Z,8.70
2019-06-26T18:29:19.911Z,8.70
2019-06-26T18:31:21.283Z,7.97
2019-06-26T18:33:22.814Z,8.43
2019-06-26T18:35:24.161Z,10.47
2019-06-26T18:37:25.523Z,8.13
2019-06-26T18:39:26.932Z,8.20
2019-06-26T18:41:28.295Z,8.23
2019-06-26T18:43:29.709Z,8.80
2019-06-26T18:45:31.086Z,7.77
2019-06-26T18:47:32.433Z,7.93
2019-06-26T18:49:33.832Z,8.20
2019-06-26T18:51:35.212Z,7.60
2019-06-26T18:53:52.526Z,8.37
2019-06-26T18:55:39.900Z,7.70
2019-06-26T18:57:41.329Z,8.00
2019-06-26T18:59:42.692Z,8.87
2019-06-26T19:01:44.207Z,9.37
2019-06-26T19:03:45.757Z,8.07
2019-06-26T19:05:47.131Z,12.43
2019-06-26T19:07:48.528Z,7.97
2019-06-26T19:09:49.920Z,7.63
2019-06-26T19:11:51.343Z,9.83
2019-06-26T19:13:52.707Z,8.40
2019-06-26T19:15:54.122Z,8.23
2019-06-26T19:17:55.551Z,8.30
2019-06-26T19:19:56.932Z,8.23
2019-06-26T19:21:58.302Z,8.23
2019-06-26T19:24:09.660Z,8.40
2019-06-26T19:26:02.990Z,8.83
2019-06-26T19:28:04.351Z,8.60
2019-06-26T19:30:07.677Z,8.67
2019-06-26T19:32:09.047Z,10.13
2019-06-26T19:34:10.408Z,8.90
2019-06-26T19:36:11.805Z,8.30
2019-06-26T19:38:13.182Z,9.43
2019-06-26T19:40:14.756Z,7.60
2019-06-26T19:42:16.261Z,8.20
2019-06-26T19:44:17.680Z,7.83
2019-06-26T19:46:19.076Z,8.67
2019-06-26T19:48:20.489Z,9.23
2019-06-26T19:50:23.597Z,8.90
2019-06-26T19:52:25.128Z,9.00
2019-06-26T19:54:29.729Z,8.93
2019-06-26T19:56:29.808Z,8.73
2019-06-26T19:58:31.224Z,8.50
2019-06-26T20:00:32.621Z,8.67
2019-06-26T20:02:34.042Z,8.60
2019-06-26T20:04:35.405Z,8.53
2019-06-26T20:06:37.189Z,7.83
2019-06-26T20:08:51.861Z,21.30
2019-06-26T20:10:41.857Z,7.77
2019-06-26T20:12:43.221Z,6.70
2019-06-26T20:14:44.603Z,7.73
2019-06-26T20:16:46.123Z,7.60
2019-06-26T20:18:47.537Z,6.30
2019-06-26T20:20:48.948Z,6.50
2019-06-26T20:22:50.332Z,6.70
2019-06-26T20:24:51.772Z,6.93
2019-06-26T20:26:53.188Z,6.70
2019-06-26T20:28:54.610Z,6.83
2019-06-26T20:30:55.967Z,7.37
2019-06-26T20:32:59.385Z,6.50
2019-06-26T20:35:00.781Z,7.07
2019-06-26T20:37:02.171Z,6.80
2019-06-26T20:39:04.511Z,6.23
2019-06-26T20:41:05.967Z,7.63
2019-06-26T20:43:07.346Z,6.40
2019-06-26T20:45:09.172Z,7.13
2019-06-26T20:47:10.642Z,7.00
2019-06-26T20:49:12.069Z,7.07
2019-06-26T20:51:13.466Z,7.40
2019-06-26T20:53:14.823Z,7.40
2019-06-26T20:55:16.316Z,9.37
2019-06-26T20:57:17.822Z,6.97
2019-06-26T20:59:19.297Z,7.67
2019-06-26T21:01:20.673Z,7.87
2019-06-26T21:03:22.017Z,6.47
2019-06-26T21:05:23.373Z,6.27
2019-06-26T21:07:24.793Z,6.70
2019-06-26T21:09:26.135Z,6.00
2019-06-26T21:11:27.668Z,6.30
2019-06-26T21:13:29.112Z,7.17
2019-06-26T21:15:30.478Z,6.27
2019-06-26T21:17:31.850Z,7.60
2019-06-26T21:19:33.245Z,6.20
2019-06-26T21:21:34.710Z,6.27
2019-06-26T21:23:36.202Z,5.77
2019-06-26T21:25:37.575Z,5.93
2019-06-26T21:27:38.975Z,5.30
2019-06-26T21:29:40.336Z,11.83
2019-06-26T21:31:41.747Z,5.87
2019-06-26T21:33:43.171Z,5.70
2019-06-26T21:35:44.541Z,6.40
2019-06-26T21:37:45.910Z,5.23
2019-06-26T21:39:47.324Z,5.93
2019-06-26T21:41:48.697Z,5.40
2019-06-26T21:43:50.117Z,5.90
2019-06-26T21:45:51.498Z,5.77
2019-06-26T21:47:52.916Z,6.30
2019-06-26T21:49:54.323Z,8.83
2019-06-26T21:51:55.733Z,5.67
2019-06-26T21:53:57.111Z,5.07
2019-06-26T21:55:58.512Z,4.73
2019-06-26T21:57:59.879Z,4.97
2019-06-26T22:00:01.285Z,5.20
2019-06-26T22:02:03.105Z,5.80
2019-06-26T22:04:04.673Z,5.17
2019-06-26T22:06:06.065Z,5.77
2019-06-26T22:08:07.553Z,5.33
2019-06-26T22:10:09.532Z,6.30
2019-06-26T22:12:11.084Z,4.97
2019-06-26T22:14:12.486Z,5.30
2019-06-26T22:16:13.890Z,5.53
2019-06-26T22:18:15.348Z,4.60
2019-06-26T22:20:17.938Z,4.83
2019-06-26T22:22:19.370Z,5.30
2019-06-26T22:24:20.856Z,4.03
2019-06-26T22:26:22.261Z,5.10
2019-06-26T22:28:24.163Z,5.03
2019-06-26T22:30:25.623Z,4.70
2019-06-26T22:32:27.009Z,4.90
2019-06-26T22:34:28.423Z,4.63
2019-06-26T22:36:29.909Z,4.83
2019-06-26T22:38:31.445Z,6.30
2019-06-26T22:40:32.787Z,5.10
2019-06-26T22:42:34.184Z,5.00
2019-06-26T22:44:35.542Z,12.10
2019-06-26T22:46:36.925Z,5.63
2019-06-26T22:48:38.306Z,5.03
2019-06-26T22:50:39.668Z,6.90
2019-06-26T22:52:41.066Z,5.17
2019-06-26T22:54:42.431Z,8.63
2019-06-26T22:56:43.892Z,7.40
2019-06-26T22:58:45.298Z,5.70
2019-06-26T23:00:47.797Z,5.37
2019-06-26T23:02:49.379Z,5.60
2019-06-26T23:04:50.735Z,4.60
2019-06-26T23:06:52.188Z,5.37
2019-06-26T23:08:53.607Z,6.87
2019-06-26T23:10:54.962Z,7.07
2019-06-26T23:12:56.358Z,9.07
2019-06-26T23:14:57.741Z,6.70
2019-06-26T23:16:59.107Z,6.63
2019-06-26T23:19:00.473Z,5.97
2019-06-26T23:21:01.861Z,6.90
2019-06-26T23:23:04.333Z,6.13
2019-06-26T23:25:06.228Z,6.87
2019-06-26T23:27:07.581Z,7.47
2019-06-26T23:29:08.971Z,6.50
2019-06-26T23:31:10.398Z,7.90
2019-06-26T23:33:11.766Z,9.60
2019-06-26T23:35:13.572Z,6.00
2019-06-26T23:37:14.950Z,7.00
2019-06-26T23:39:16.523Z,8.40
2019-06-26T23:41:18.213Z,6.93
2019-06-26T23:43:21.537Z,6.50
2019-06-26T23:45:22.935Z,7.83
2019-06-26T23:47:24.299Z,7.83
2019-06-26T23:49:25.649Z,8.53
2019-06-26T23:51:27.058Z,10.77
2019-06-26T23:53:28.417Z,8.40
2019-06-26T23:55:29.912Z,8.47
2019-06-26T23:57:31.431Z,8.60
2019-06-26T23:59:32.825Z,9.70
